sensor_id;sensor_type;location;lat;lon;timestamp;pressure;altitude;pressure_sealevel;temperature;humidity
59831;BME280;45711;50.108;13.712;2024-03-08T00:01:28;98269.66;;;1.22;100.00
59831;BME280;45711;50.108;13.712;2024-03-08T00:03:54;98272.94;;;1.04;100.00
59831;BME280;45711;50.108;13.712;2024-03-08T00:06:19;98271.84;;;1.25;100.00
59831;BME280;45711;50.108;13.712;2024-03-08T00:08:45;98275.38;;;1.06;100.00
59831;BME280;45711;50.108;13.712;2024-03-08T00:11:10;98264.41;;;1.15;100.00
59831;BME280;45711;50.108;13.712;2024-03-08T00:13:36;98269.31;;;1.05;100.00
59831;BME280;45711;50.108;13.712;2024-03-08T00:16:04;98275.09;;;1.27;100.00
59831;BME280;45711;50.108;13.712;2024-03-08T00:18:29;98267.31;;;0.94;100.00
59831;BME280;45711;50.108;13.712;2024-03-08T00:20:55;98278.25;;;0.97;100.00
59831;BME280;45711;50.108;13.712;2024-03-08T00:23:21;98266.75;;;0.79;100.00
59831;BME280;45711;50.108;13.712;2024-03-08T00:25:47;98271.00;;;0.80;100.00
59831;BME280;45711;50.108;13.712;2024-03-08T00:28:12;98272.19;;;0.90;100.00
59831;BME280;45711;50.108;13.712;2024-03-08T00:30:40;98270.59;;;0.76;100.00
59831;BME280;45711;50.108;13.712;2024-03-08T00:33:07;98266.59;;;0.54;100.00
59831;BME280;45711;50.108;13.712;2024-03-08T00:35:33;98262.97;;;0.48;100.00
59831;BME280;45711;50.108;13.712;2024-03-08T00:37:58;98263.94;;;0.67;100.00
59831;BME280;45711;50.108;13.712;2024-03-08T00:40:24;98268.59;;;0.65;100.00
59831;BME280;45711;50.108;13.712;2024-03-08T00:42:49;98266.34;;;0.75;100.00
59831;BME280;45711;50.108;13.712;2024-03-08T00:45:15;98271.25;;;0.58;100.00
59831;BME280;45711;50.108;13.712;2024-03-08T00:47:41;98267.13;;;0.82;100.00
59831;BME280;45711;50.108;13.712;2024-03-08T00:50:11;98278.53;;;0.56;100.00
59831;BME280;45711;50.108;13.712;2024-03-08T00:52:36;98271.44;;;0.63;100.00
59831;BME280;45711;50.108;13.712;2024-03-08T00:55:03;98273.50;;;0.35;100.00
59831;BME280;45711;50.108;13.712;2024-03-08T00:57:28;98275.53;;;0.33;100.00
59831;BME280;45711;50.108;13.712;2024-03-08T00:59:54;98266.03;;;0.32;100.00
59831;BME280;45711;50.108;13.712;2024-03-08T01:02:20;98259.75;;;0.33;100.00
59831;BME280;45711;50.108;13.712;2024-03-08T01:04:46;98253.66;;;0.45;100.00
59831;BME280;45711;50.108;13.712;2024-03-08T01:07:14;98257.72;;;0.48;100.00
59831;BME280;45711;50.108;13.712;2024-03-08T01:09:39;98255.69;;;0.37;100.00
59831;BME280;45711;50.108;13.712;2024-03-08T01:12:05;98256.31;;;0.32;100.00
59831;BME280;45711;50.108;13.712;2024-03-08T01:14:32;98258.53;;;0.35;100.00
59831;BME280;45711;50.108;13.712;2024-03-08T01:16:58;98254.47;;;0.33;100.00
59831;BME280;45711;50.108;13.712;2024-03-08T01:19:24;98250.84;;;0.07;100.00
59831;BME280;45711;50.108;13.712;2024-03-08T01:21:50;98248.19;;;0.07;100.00
59831;BME280;45711;50.108;13.712;2024-03-08T01:24:18;98253.25;;;0.09;100.00
59831;BME280;45711;50.108;13.712;2024-03-08T01:26:43;98252.25;;;0.30;100.00
59831;BME280;45711;50.108;13.712;2024-03-08T01:29:09;98237.66;;;0.20;100.00
59831;BME280;45711;50.108;13.712;2024-03-08T01:31:34;98240.09;;;0.35;100.00
59831;BME280;45711;50.108;13.712;2024-03-08T01:34:02;98233.22;;;0.08;100.00
59831;BME280;45711;50.108;13.712;2024-03-08T01:36:27;98231.19;;;0.30;100.00
59831;BME280;45711;50.108;13.712;2024-03-08T01:38:53;98225.72;;;0.24;100.00
59831;BME280;45711;50.108;13.712;2024-03-08T01:41:20;98219.66;;;0.24;100.00
59831;BME280;45711;50.108;13.712;2024-03-08T01:43:46;98222.03;;;0.59;100.00
59831;BME280;45711;50.108;13.712;2024-03-08T01:46:14;98224.09;;;0.30;100.00
59831;BME280;45711;50.108;13.712;2024-03-08T01:48:41;98218.88;;;-0.03;100.00
59831;BME280;45711;50.108;13.712;2024-03-08T01:51:07;98224.13;;;-0.03;100.00
59831;BME280;45711;50.108;13.712;2024-03-08T01:53:34;98219.59;;;0.50;100.00
59831;BME280;45711;50.108;13.712;2024-03-08T01:56:00;98220.59;;;1.14;100.00
59831;BME280;45711;50.108;13.712;2024-03-08T01:58:29;98210.19;;;0.81;100.00
59831;BME280;45711;50.108;13.712;2024-03-08T02:00:56;98208.06;;;0.38;100.00
59831;BME280;45711;50.108;13.712;2024-03-08T02:03:23;98211.75;;;0.31;100.00
59831;BME280;45711;50.108;13.712;2024-03-08T02:05:49;98214.97;;;0.46;100.00
59831;BME280;45711;50.108;13.712;2024-03-08T02:08:15;98219.44;;;0.25;100.00
59831;BME280;45711;50.108;13.712;2024-03-08T02:10:41;98209.53;;;0.28;100.00
59831;BME280;45711;50.108;13.712;2024-03-08T02:13:07;98205.84;;;0.42;100.00
59831;BME280;45711;50.108;13.712;2024-03-08T02:15:55;98202.91;;;0.77;100.00
59831;BME280;45711;50.108;13.712;2024-03-08T02:18:22;98195.91;;;0.57;100.00
59831;BME280;45711;50.108;13.712;2024-03-08T02:20:49;98196.44;;;0.79;100.00
59831;BME280;45711;50.108;13.712;2024-03-08T02:23:15;98185.38;;;0.50;100.00
59831;BME280;45711;50.108;13.712;2024-03-08T02:25:40;98193.91;;;0.39;100.00
59831;BME280;45711;50.108;13.712;2024-03-08T02:28:09;98190.00;;;0.55;100.00
59831;BME280;45711;50.108;13.712;2024-03-08T02:30:35;98188.13;;;0.75;100.00
59831;BME280;45711;50.108;13.712;2024-03-08T02:33:01;98182.47;;;0.79;100.00
59831;BME280;45711;50.108;13.712;2024-03-08T02:35:26;98190.72;;;0.89;100.00
59831;BME280;45711;50.108;13.712;2024-03-08T02:37:53;98191.44;;;0.58;100.00
59831;BME280;45711;50.108;13.712;2024-03-08T02:40:19;98184.13;;;0.66;100.00
59831;BME280;45711;50.108;13.712;2024-03-08T02:42:44;98182.66;;;0.77;100.00
59831;BME280;45711;50.108;13.712;2024-03-08T02:45:10;98184.41;;;0.96;100.00
59831;BME280;45711;50.108;13.712;2024-03-08T02:47:36;98173.34;;;0.74;100.00
59831;BME280;45711;50.108;13.712;2024-03-08T02:50:01;98182.91;;;1.14;100.00
59831;BME280;45711;50.108;13.712;2024-03-08T02:52:29;98179.13;;;0.96;100.00
59831;BME280;45711;50.108;13.712;2024-03-08T02:54:56;98168.91;;;0.68;100.00
59831;BME280;45711;50.108;13.712;2024-03-08T02:57:21;98178.84;;;0.66;100.00
59831;BME280;45711;50.108;13.712;2024-03-08T02:59:47;98180.06;;;0.64;100.00
59831;BME280;45711;50.108;13.712;2024-03-08T03:02:13;98162.44;;;0.64;100.00
59831;BME280;45711;50.108;13.712;2024-03-08T03:04:40;98168.66;;;0.77;100.00
59831;BME280;45711;50.108;13.712;2024-03-08T03:07:05;98171.28;;;0.83;100.00
59831;BME280;45711;50.108;13.712;2024-03-08T03:09:31;98169.13;;;0.67;100.00
59831;BME280;45711;50.108;13.712;2024-03-08T03:11:59;98171.88;;;0.92;100.00
59831;BME280;45711;50.108;13.712;2024-03-08T03:14:25;98171.47;;;0.82;100.00
59831;BME280;45711;50.108;13.712;2024-03-08T03:16:52;98173.06;;;0.89;100.00
59831;BME280;45711;50.108;13.712;2024-03-08T03:19:18;98169.88;;;0.81;100.00
59831;BME280;45711;50.108;13.712;2024-03-08T03:21:43;98168.22;;;0.86;100.00
59831;BME280;45711;50.108;13.712;2024-03-08T03:24:09;98167.97;;;0.94;100.00
59831;BME280;45711;50.108;13.712;2024-03-08T03:26:35;98161.84;;;0.56;100.00
59831;BME280;45711;50.108;13.712;2024-03-08T03:29:05;98173.28;;;0.88;100.00
59831;BME280;45711;50.108;13.712;2024-03-08T03:31:34;98159.34;;;0.74;100.00
59831;BME280;45711;50.108;13.712;2024-03-08T03:34:00;98156.47;;;0.82;100.00
59831;BME280;45711;50.108;13.712;2024-03-08T03:36:28;98157.91;;;0.78;100.00
59831;BME280;45711;50.108;13.712;2024-03-08T03:38:54;98153.31;;;0.67;100.00
59831;BME280;45711;50.108;13.712;2024-03-08T03:41:38;98154.06;;;0.74;100.00
59831;BME280;45711;50.108;13.712;2024-03-08T03:44:05;98145.00;;;0.63;100.00
59831;BME280;45711;50.108;13.712;2024-03-08T03:46:34;98148.06;;;0.60;100.00
59831;BME280;45711;50.108;13.712;2024-03-08T03:48:59;98141.19;;;0.59;100.00
59831;BME280;45711;50.108;13.712;2024-03-08T03:51:25;98147.59;;;0.77;100.00
59831;BME280;45711;50.108;13.712;2024-03-08T03:53:51;98142.88;;;0.92;100.00
59831;BME280;45711;50.108;13.712;2024-03-08T03:56:18;98143.69;;;0.92;100.00
59831;BME280;45711;50.108;13.712;2024-03-08T03:58:44;98146.38;;;0.79;100.00
59831;BME280;45711;50.108;13.712;2024-03-08T04:01:13;98145.97;;;0.75;100.00
59831;BME280;45711;50.108;13.712;2024-03-08T04:03:41;98146.28;;;0.54;100.00
59831;BME280;45711;50.108;13.712;2024-03-08T04:06:08;98148.25;;;0.65;100.00
59831;BME280;45711;50.108;13.712;2024-03-08T04:08:34;98151.78;;;0.91;100.00
59831;BME280;45711;50.108;13.712;2024-03-08T04:11:00;98153.72;;;1.09;100.00
59831;BME280;45711;50.108;13.712;2024-03-08T04:13:25;98148.78;;;0.81;100.00
59831;BME280;45711;50.108;13.712;2024-03-08T04:15:51;98154.91;;;0.74;100.00
59831;BME280;45711;50.108;13.712;2024-03-08T04:18:18;98154.81;;;1.26;100.00
59831;BME280;45711;50.108;13.712;2024-03-08T04:20:44;98148.50;;;0.95;100.00
59831;BME280;45711;50.108;13.712;2024-03-08T04:23:10;98145.31;;;0.87;100.00
59831;BME280;45711;50.108;13.712;2024-03-08T04:25:36;98142.09;;;0.85;100.00
59831;BME280;45711;50.108;13.712;2024-03-08T04:28:01;98143.94;;;0.78;100.00
59831;BME280;45711;50.108;13.712;2024-03-08T04:30:27;98144.56;;;0.73;100.00
59831;BME280;45711;50.108;13.712;2024-03-08T04:32:53;98133.44;;;0.71;100.00
59831;BME280;45711;50.108;13.712;2024-03-08T04:35:20;98131.78;;;0.77;100.00
59831;BME280;45711;50.108;13.712;2024-03-08T04:37:46;98124.59;;;0.97;100.00
59831;BME280;45711;50.108;13.712;2024-03-08T04:40:12;98127.31;;;0.84;100.00
59831;BME280;45711;50.108;13.712;2024-03-08T04:42:39;98126.28;;;0.78;100.00
59831;BME280;45711;50.108;13.712;2024-03-08T04:45:06;98118.66;;;0.70;100.00
59831;BME280;45711;50.108;13.712;2024-03-08T04:47:36;98125.56;;;0.64;100.00
59831;BME280;45711;50.108;13.712;2024-03-08T04:50:02;98133.94;;;0.93;100.00
59831;BME280;45711;50.108;13.712;2024-03-08T04:52:29;98129.53;;;1.18;100.00
59831;BME280;45711;50.108;13.712;2024-03-08T04:54:54;98117.75;;;0.83;100.00
59831;BME280;45711;50.108;13.712;2024-03-08T04:57:20;98127.94;;;0.79;100.00
59831;BME280;45711;50.108;13.712;2024-03-08T04:59:46;98123.41;;;0.93;100.00
59831;BME280;45711;50.108;13.712;2024-03-08T05:02:12;98122.63;;;0.86;100.00
59831;BME280;45711;50.108;13.712;2024-03-08T05:04:37;98120.63;;;0.81;100.00
59831;BME280;45711;50.108;13.712;2024-03-08T05:07:03;98132.81;;;0.75;100.00
59831;BME280;45711;50.108;13.712;2024-03-08T05:09:33;98133.16;;;0.86;100.00
59831;BME280;45711;50.108;13.712;2024-03-08T05:12:01;98138.03;;;0.82;100.00
59831;BME280;45711;50.108;13.712;2024-03-08T05:14:27;98130.00;;;0.70;100.00
59831;BME280;45711;50.108;13.712;2024-03-08T05:16:52;98139.94;;;0.68;100.00
59831;BME280;45711;50.108;13.712;2024-03-08T05:19:19;98137.69;;;0.72;100.00
59831;BME280;45711;50.108;13.712;2024-03-08T05:21:45;98136.84;;;0.78;100.00
59831;BME280;45711;50.108;13.712;2024-03-08T05:24:10;98137.28;;;0.75;100.00
59831;BME280;45711;50.108;13.712;2024-03-08T05:26:37;98138.25;;;0.81;100.00
59831;BME280;45711;50.108;13.712;2024-03-08T05:29:03;98139.88;;;0.82;100.00
59831;BME280;45711;50.108;13.712;2024-03-08T05:31:30;98140.25;;;0.92;100.00
59831;BME280;45711;50.108;13.712;2024-03-08T05:34:01;98135.78;;;0.92;100.00
59831;BME280;45711;50.108;13.712;2024-03-08T05:36:27;98135.13;;;0.97;100.00
59831;BME280;45711;50.108;13.712;2024-03-08T05:38:52;98135.78;;;0.92;100.00
59831;BME280;45711;50.108;13.712;2024-03-08T05:41:19;98129.13;;;0.83;100.00
59831;BME280;45711;50.108;13.712;2024-03-08T05:43:46;98127.94;;;0.72;100.00
59831;BME280;45711;50.108;13.712;2024-03-08T05:46:15;98121.50;;;0.68;100.00
59831;BME280;45711;50.108;13.712;2024-03-08T05:48:40;98126.34;;;0.71;100.00
59831;BME280;45711;50.108;13.712;2024-03-08T05:51:09;98123.34;;;0.99;100.00
59831;BME280;45711;50.108;13.712;2024-03-08T05:53:35;98131.56;;;0.85;100.00
59831;BME280;45711;50.108;13.712;2024-03-08T05:56:00;98129.47;;;0.93;100.00
59831;BME280;45711;50.108;13.712;2024-03-08T05:58:27;98139.22;;;0.93;100.00
59831;BME280;45711;50.108;13.712;2024-03-08T06:00:56;98135.69;;;1.06;100.00
59831;BME280;45711;50.108;13.712;2024-03-08T06:03:22;98142.09;;;0.85;100.00
59831;BME280;45711;50.108;13.712;2024-03-08T06:05:51;98138.47;;;0.79;100.00
59831;BME280;45711;50.108;13.712;2024-03-08T06:08:17;98142.22;;;0.58;100.00
59831;BME280;45711;50.108;13.712;2024-03-08T06:10:44;98144.22;;;0.63;100.00
59831;BME280;45711;50.108;13.712;2024-03-08T06:13:10;98144.72;;;0.85;100.00
59831;BME280;45711;50.108;13.712;2024-03-08T06:15:38;98143.59;;;1.06;100.00
59831;BME280;45711;50.108;13.712;2024-03-08T06:18:05;98144.09;;;1.21;100.00
59831;BME280;45711;50.108;13.712;2024-03-08T06:20:33;98137.44;;;1.18;100.00
59831;BME280;45711;50.108;13.712;2024-03-08T06:23:01;98146.03;;;1.07;100.00
59831;BME280;45711;50.108;13.712;2024-03-08T06:25:27;98140.16;;;1.05;100.00
59831;BME280;45711;50.108;13.712;2024-03-08T06:27:53;98144.34;;;1.13;100.00
59831;BME280;45711;50.108;13.712;2024-03-08T06:30:18;98139.47;;;1.16;100.00
59831;BME280;45711;50.108;13.712;2024-03-08T06:32:48;98148.94;;;0.92;100.00
59831;BME280;45711;50.108;13.712;2024-03-08T06:35:15;98145.75;;;0.84;100.00
59831;BME280;45711;50.108;13.712;2024-03-08T06:37:41;98145.47;;;0.98;100.00
59831;BME280;45711;50.108;13.712;2024-03-08T06:40:10;98142.19;;;1.03;100.00
59831;BME280;45711;50.108;13.712;2024-03-08T06:42:39;98145.59;;;1.10;100.00
59831;BME280;45711;50.108;13.712;2024-03-08T06:45:05;98134.50;;;1.33;100.00
59831;BME280;45711;50.108;13.712;2024-03-08T06:47:30;98134.91;;;1.30;100.00
59831;BME280;45711;50.108;13.712;2024-03-08T06:49:56;98131.88;;;1.33;100.00
59831;BME280;45711;50.108;13.712;2024-03-08T06:52:23;98139.03;;;1.51;100.00
59831;BME280;45711;50.108;13.712;2024-03-08T06:54:49;98124.91;;;2.14;100.00
59831;BME280;45711;50.108;13.712;2024-03-08T06:57:14;98124.66;;;3.31;100.00
59831;BME280;45711;50.108;13.712;2024-03-08T06:59:42;98121.66;;;3.92;100.00
59831;BME280;45711;50.108;13.712;2024-03-08T07:02:07;98103.38;;;4.43;100.00
59831;BME280;45711;50.108;13.712;2024-03-08T07:04:34;98099.81;;;4.77;100.00
59831;BME280;45711;50.108;13.712;2024-03-08T07:07:03;98098.06;;;5.12;100.00
59831;BME280;45711;50.108;13.712;2024-03-08T07:09:30;98093.59;;;5.29;100.00
59831;BME280;45711;50.108;13.712;2024-03-08T07:11:56;98090.91;;;5.58;100.00
59831;BME280;45711;50.108;13.712;2024-03-08T07:14:21;98090.94;;;5.96;100.00
59831;BME280;45711;50.108;13.712;2024-03-08T07:16:50;98096.94;;;6.25;100.00
59831;BME280;45711;50.108;13.712;2024-03-08T07:19:16;98096.78;;;6.54;100.00
59831;BME280;45711;50.108;13.712;2024-03-08T07:21:42;98084.16;;;6.66;98.51
59831;BME280;45711;50.108;13.712;2024-03-08T07:24:08;98091.22;;;6.55;96.39
59831;BME280;45711;50.108;13.712;2024-03-08T07:26:44;98082.78;;;6.86;93.31
59831;BME280;45711;50.108;13.712;2024-03-08T07:29:10;98087.56;;;7.11;92.53
59831;BME280;45711;50.108;13.712;2024-03-08T07:31:35;98085.94;;;6.61;93.18
59831;BME280;45711;50.108;13.712;2024-03-08T07:34:16;98086.13;;;7.30;89.99
59831;BME280;45711;50.108;13.712;2024-03-08T07:36:42;98085.34;;;7.29;93.07
59831;BME280;45711;50.108;13.712;2024-03-08T07:39:07;98081.72;;;7.41;90.92
59831;BME280;45711;50.108;13.712;2024-03-08T07:41:37;98081.09;;;7.66;87.45
59831;BME280;45711;50.108;13.712;2024-03-08T07:44:04;98082.13;;;7.60;87.66
59831;BME280;45711;50.108;13.712;2024-03-08T07:46:30;98075.81;;;7.71;88.03
59831;BME280;45711;50.108;13.712;2024-03-08T07:48:55;98076.94;;;7.43;91.47
59831;BME280;45711;50.108;13.712;2024-03-08T07:51:21;98075.63;;;7.82;87.05
59831;BME280;45711;50.108;13.712;2024-03-08T07:53:46;98075.91;;;7.86;87.70
59831;BME280;45711;50.108;13.712;2024-03-08T07:56:12;98066.22;;;8.12;80.72
59831;BME280;45711;50.108;13.712;2024-03-08T07:58:39;98059.84;;;8.18;80.16
59831;BME280;45711;50.108;13.712;2024-03-08T08:01:07;98057.59;;;7.95;85.39
59831;BME280;45711;50.108;13.712;2024-03-08T08:03:32;98054.88;;;7.85;86.51
59831;BME280;45711;50.108;13.712;2024-03-08T08:05:58;98052.84;;;8.02;86.70
59831;BME280;45711;50.108;13.712;2024-03-08T08:08:24;98051.34;;;8.21;84.28
59831;BME280;45711;50.108;13.712;2024-03-08T08:10:51;98041.47;;;8.22;80.39
59831;BME280;45711;50.108;13.712;2024-03-08T08:13:17;98041.88;;;8.41;79.44
59831;BME280;45711;50.108;13.712;2024-03-08T08:15:43;98044.84;;;8.54;77.12
59831;BME280;45711;50.108;13.712;2024-03-08T08:18:10;98043.63;;;8.25;79.47
59831;BME280;45711;50.108;13.712;2024-03-08T08:20:36;98041.06;;;8.40;82.23
59831;BME280;45711;50.108;13.712;2024-03-08T08:23:03;98035.91;;;8.28;81.77
59831;BME280;45711;50.108;13.712;2024-03-08T08:25:28;98035.28;;;8.69;78.75
59831;BME280;45711;50.108;13.712;2024-03-08T08:27:54;98033.63;;;8.52;77.12
59831;BME280;45711;50.108;13.712;2024-03-08T08:30:20;98024.31;;;8.60;78.68
59831;BME280;45711;50.108;13.712;2024-03-08T08:32:47;98029.63;;;8.55;77.52
59831;BME280;45711;50.108;13.712;2024-03-08T08:35:15;98019.06;;;8.18;82.99
59831;BME280;45711;50.108;13.712;2024-03-08T08:37:41;98022.94;;;8.42;79.94
59831;BME280;45711;50.108;13.712;2024-03-08T08:40:07;98024.19;;;8.29;79.03
59831;BME280;45711;50.108;13.712;2024-03-08T08:42:40;98037.53;;;8.35;77.16
59831;BME280;45711;50.108;13.712;2024-03-08T08:45:06;98033.47;;;8.22;79.15
59831;BME280;45711;50.108;13.712;2024-03-08T08:47:35;98030.13;;;8.37;77.52
59831;BME280;45711;50.108;13.712;2024-03-08T08:50:00;98024.63;;;8.06;78.43
59831;BME280;45711;50.108;13.712;2024-03-08T08:52:27;98018.72;;;7.99;78.98
59831;BME280;45711;50.108;13.712;2024-03-08T08:54:54;98024.91;;;7.67;80.50
59831;BME280;45711;50.108;13.712;2024-03-08T08:57:20;98022.31;;;7.77;82.20
59831;BME280;45711;50.108;13.712;2024-03-08T08:59:46;98021.66;;;7.60;84.73
59831;BME280;45711;50.108;13.712;2024-03-08T09:02:11;98021.28;;;7.41;88.28
59831;BME280;45711;50.108;13.712;2024-03-08T09:04:38;98020.19;;;8.32;78.74
59831;BME280;45711;50.108;13.712;2024-03-08T09:07:03;98013.53;;;7.77;84.02
59831;BME280;45711;50.108;13.712;2024-03-08T09:09:33;98013.53;;;7.40;90.58
59831;BME280;45711;50.108;13.712;2024-03-08T09:11:58;98007.00;;;7.20;93.41
59831;BME280;45711;50.108;13.712;2024-03-08T09:14:24;98002.72;;;7.99;87.12
59831;BME280;45711;50.108;13.712;2024-03-08T09:16:51;97998.00;;;7.64;87.46
59831;BME280;45711;50.108;13.712;2024-03-08T09:19:17;98012.31;;;8.05;81.85
59831;BME280;45711;50.108;13.712;2024-03-08T09:21:44;98003.59;;;8.15;80.88
59831;BME280;45711;50.108;13.712;2024-03-08T09:24:10;97996.28;;;7.90;85.23
59831;BME280;45711;50.108;13.712;2024-03-08T09:26:37;97998.91;;;7.79;89.29
59831;BME280;45711;50.108;13.712;2024-03-08T09:29:03;98006.63;;;7.44;90.71
59831;BME280;45711;50.108;13.712;2024-03-08T09:31:28;97984.66;;;8.11;79.91
59831;BME280;45711;50.108;13.712;2024-03-08T09:33:54;97991.47;;;7.92;82.83
59831;BME280;45711;50.108;13.712;2024-03-08T09:36:20;97982.38;;;7.82;83.42
59831;BME280;45711;50.108;13.712;2024-03-08T09:38:45;97982.31;;;7.72;88.66
59831;BME280;45711;50.108;13.712;2024-03-08T09:41:11;97983.91;;;7.68;90.30
59831;BME280;45711;50.108;13.712;2024-03-08T09:43:39;97982.81;;;8.22;86.26
59831;BME280;45711;50.108;13.712;2024-03-08T09:46:05;97981.41;;;7.99;87.89
59831;BME280;45711;50.108;13.712;2024-03-08T09:48:33;97969.34;;;8.49;78.20
59831;BME280;45711;50.108;13.712;2024-03-08T09:51:00;97973.78;;;8.28;81.01
59831;BME280;45711;50.108;13.712;2024-03-08T09:53:26;97972.28;;;7.90;86.99
59831;BME280;45711;50.108;13.712;2024-03-08T09:55:51;97973.56;;;7.77;88.75
59831;BME280;45711;50.108;13.712;2024-03-08T09:58:17;97963.06;;;7.18;94.22
59831;BME280;45711;50.108;13.712;2024-03-08T10:00:59;97962.50;;;7.53;95.44
59831;BME280;45711;50.108;13.712;2024-03-08T10:03:28;97962.44;;;7.90;91.59
59831;BME280;45711;50.108;13.712;2024-03-08T10:05:56;97951.50;;;7.87;89.52
59831;BME280;45711;50.108;13.712;2024-03-08T10:08:25;97959.47;;;7.81;92.42
59831;BME280;45711;50.108;13.712;2024-03-08T10:10:51;97957.44;;;7.51;97.90
59831;BME280;45711;50.108;13.712;2024-03-08T10:13:17;97950.72;;;7.96;87.69
59831;BME280;45711;50.108;13.712;2024-03-08T10:54:30;97927.38;;;8.19;87.00
59831;BME280;45711;50.108;13.712;2024-03-08T10:56:57;97915.44;;;7.69;94.01
59831;BME280;45711;50.108;13.712;2024-03-08T10:59:28;97917.84;;;7.70;93.13
59831;BME280;45711;50.108;13.712;2024-03-08T11:01:55;97915.19;;;8.48;85.38
59831;BME280;45711;50.108;13.712;2024-03-08T11:04:20;97908.28;;;8.68;77.11
59831;BME280;45711;50.108;13.712;2024-03-08T11:06:50;97912.97;;;8.20;85.10
59831;BME280;45711;50.108;13.712;2024-03-08T11:09:29;97899.75;;;8.55;79.85
59831;BME280;45711;50.108;13.712;2024-03-08T11:12:20;97906.38;;;8.53;78.49
59831;BME280;45711;50.108;13.712;2024-03-08T11:14:47;97896.81;;;8.62;79.89
59831;BME280;45711;50.108;13.712;2024-03-08T11:17:20;97890.28;;;8.02;86.28
59831;BME280;45711;50.108;13.712;2024-03-08T11:19:48;97890.88;;;8.24;86.35
59831;BME280;45711;50.108;13.712;2024-03-08T11:22:28;97876.47;;;8.20;87.39
59831;BME280;45711;50.108;13.712;2024-03-08T11:25:01;97868.75;;;8.34;85.70
59831;BME280;45711;50.108;13.712;2024-03-08T11:27:29;97867.47;;;8.42;82.79
59831;BME280;45711;50.108;13.712;2024-03-08T11:30:02;97869.59;;;8.70;79.63
59831;BME280;45711;50.108;13.712;2024-03-08T11:32:37;97867.72;;;8.45;79.71
59831;BME280;45711;50.108;13.712;2024-03-08T11:35:06;97862.84;;;8.27;86.40
59831;BME280;45711;50.108;13.712;2024-03-08T11:37:33;97860.97;;;8.12;90.39
59831;BME280;45711;50.108;13.712;2024-03-08T11:40:12;97859.38;;;8.16;91.01
59831;BME280;45711;50.108;13.712;2024-03-08T11:42:44;97850.66;;;8.41;87.35
59831;BME280;45711;50.108;13.712;2024-03-08T11:45:10;97844.75;;;8.19;89.78
59831;BME280;45711;50.108;13.712;2024-03-08T11:47:42;97848.72;;;8.26;85.08
59831;BME280;45711;50.108;13.712;2024-03-08T11:50:11;97837.06;;;8.43;81.94
59831;BME280;45711;50.108;13.712;2024-03-08T11:52:37;97844.47;;;8.30;86.48
59831;BME280;45711;50.108;13.712;2024-03-08T11:55:05;97842.94;;;8.45;76.90
59831;BME280;45711;50.108;13.712;2024-03-08T11:57:31;97830.59;;;8.13;80.27
59831;BME280;45711;50.108;13.712;2024-03-08T11:59:58;97828.75;;;8.34;84.39
59831;BME280;45711;50.108;13.712;2024-03-08T12:02:24;97821.06;;;8.63;79.45
59831;BME280;45711;50.108;13.712;2024-03-08T12:04:56;97827.97;;;8.44;82.20
59831;BME280;45711;50.108;13.712;2024-03-08T12:07:22;97820.47;;;8.25;83.36
59831;BME280;45711;50.108;13.712;2024-03-08T12:10:16;97821.16;;;7.70;80.55
59831;BME280;45711;50.108;13.712;2024-03-08T12:12:43;97807.69;;;8.27;82.93
59831;BME280;45711;50.108;13.712;2024-03-08T12:15:09;97808.50;;;8.64;78.98
59831;BME280;45711;50.108;13.712;2024-03-08T12:17:36;97814.38;;;8.81;75.18
59831;BME280;45711;50.108;13.712;2024-03-08T12:20:11;97813.03;;;8.78;75.59
59831;BME280;45711;50.108;13.712;2024-03-08T12:22:42;97802.41;;;8.58;74.88
59831;BME280;45711;50.108;13.712;2024-03-08T12:25:09;97809.06;;;8.55;77.09
59831;BME280;45711;50.108;13.712;2024-03-08T12:27:37;97809.59;;;8.68;76.51
59831;BME280;45711;50.108;13.712;2024-03-08T12:30:19;97803.47;;;8.42;78.16
59831;BME280;45711;50.108;13.712;2024-03-08T12:32:52;97811.72;;;8.50;73.68
59831;BME280;45711;50.108;13.712;2024-03-08T12:35:19;97805.84;;;8.38;74.92
59831;BME280;45711;50.108;13.712;2024-03-08T12:37:48;97793.03;;;8.30;82.93
59831;BME280;45711;50.108;13.712;2024-03-08T12:40:14;97797.59;;;8.55;78.41
59831;BME280;45711;50.108;13.712;2024-03-08T12:42:43;97798.38;;;8.71;75.58
59831;BME280;45711;50.108;13.712;2024-03-08T12:45:09;97791.69;;;8.78;78.13
59831;BME280;45711;50.108;13.712;2024-03-08T12:47:37;97779.69;;;8.66;78.60
59831;BME280;45711;50.108;13.712;2024-03-08T12:50:03;97782.34;;;8.66;78.48
59831;BME280;45711;50.108;13.712;2024-03-08T12:52:29;97768.78;;;8.47;83.12
59831;BME280;45711;50.108;13.712;2024-03-08T12:54:55;97764.47;;;8.36;84.69
59831;BME280;45711;50.108;13.712;2024-03-08T12:57:28;97775.41;;;8.80;80.62
59831;BME280;45711;50.108;13.712;2024-03-08T12:59:55;97774.06;;;8.93;78.19
59831;BME280;45711;50.108;13.712;2024-03-08T13:02:21;97761.56;;;8.63;79.47
59831;BME280;45711;50.108;13.712;2024-03-08T13:04:52;97773.81;;;8.79;75.37
59831;BME280;45711;50.108;13.712;2024-03-08T13:07:22;97765.78;;;8.79;75.49
59831;BME280;45711;50.108;13.712;2024-03-08T13:09:49;97766.38;;;8.71;76.65
59831;BME280;45711;50.108;13.712;2024-03-08T13:12:15;97767.16;;;8.66;78.83
59831;BME280;45711;50.108;13.712;2024-03-08T13:14:40;97752.75;;;8.72;79.69
59831;BME280;45711;50.108;13.712;2024-03-08T13:17:12;97744.25;;;8.50;81.63
59831;BME280;45711;50.108;13.712;2024-03-08T13:19:38;97750.34;;;8.61;78.92
59831;BME280;45711;50.108;13.712;2024-03-08T13:22:04;97755.72;;;8.50;74.57
59831;BME280;45711;50.108;13.712;2024-03-08T13:24:30;97760.25;;;8.45;74.25
59831;BME280;45711;50.108;13.712;2024-03-08T13:26:56;97740.53;;;8.46;75.67
59831;BME280;45711;50.108;13.712;2024-03-08T13:29:24;97743.72;;;8.58;75.39
59831;BME280;45711;50.108;13.712;2024-03-08T13:31:50;97746.38;;;8.63;76.92
59831;BME280;45711;50.108;13.712;2024-03-08T13:34:18;97743.44;;;8.54;78.62